createdAt,value
2023-04-10T00:00:06.711Z,12.23
2023-04-10T00:02:34.163Z,12.35
2023-04-10T00:05:01.319Z,11.30
2023-04-10T00:07:28.340Z,14.60
2023-04-10T00:09:55.509Z,9.95
2023-04-10T00:12:22.584Z,10.50
2023-04-10T00:14:49.554Z,11.95
2023-04-10T00:17:16.738Z,13.10
2023-04-10T00:19:43.710Z,11.90
2023-04-10T00:22:11.100Z,14.00
2023-04-10T00:24:38.191Z,12.57
2023-04-10T00:27:05.437Z,11.52
2023-04-10T00:29:32.602Z,12.25
2023-04-10T00:31:59.931Z,13.50
2023-04-10T00:34:26.915Z,15.68
2023-04-10T00:36:53.865Z,13.75
2023-04-10T00:39:21.179Z,15.82
2023-04-10T00:41:48.087Z,11.02
2023-04-10T00:44:15.436Z,12.30
2023-04-10T00:46:42.797Z,11.55
2023-04-10T00:49:10.701Z,11.75
2023-04-10T00:51:38.096Z,10.55
2023-04-10T00:54:06.603Z,12.48
2023-04-10T00:56:34.176Z,13.07
2023-04-10T00:59:04.123Z,12.35
2023-04-10T01:01:32.414Z,14.50
2023-04-10T01:04:00.513Z,13.93
2023-04-10T01:07:00.549Z,11.10
2023-04-10T01:09:46.075Z,10.23
2023-04-10T01:12:38.091Z,15.07
2023-04-10T01:15:10.749Z,10.63
2023-04-10T01:18:02.360Z,11.23
2023-04-10T01:20:37.780Z,13.00
2023-04-10T01:23:26.779Z,11.60
2023-04-10T01:26:01.143Z,13.18
2023-04-10T01:28:52.176Z,11.63
2023-04-10T01:31:32.855Z,10.38
2023-04-10T01:34:10.454Z,9.65
2023-04-10T01:36:49.987Z,9.68
2023-04-10T01:39:22.689Z,14.15
2023-04-10T01:41:54.034Z,11.13
2023-04-10T01:44:32.601Z,14.45
2023-04-10T01:47:02.151Z,10.32
2023-04-10T01:49:31.531Z,10.25
2023-04-10T01:52:06.007Z,10.88
2023-04-10T01:54:35.653Z,10.23
2023-04-10T01:57:05.056Z,9.55
2023-04-10T01:59:40.266Z,13.63
2023-04-10T02:02:12.012Z,10.20
2023-04-10T02:04:39.595Z,10.30
2023-04-10T02:08:00.344Z,10.05
2023-04-10T02:10:41.592Z,10.50
2023-04-10T02:13:12.208Z,9.63
2023-04-10T02:15:46.548Z,8.55
2023-04-10T02:18:17.879Z,12.20
2023-04-10T02:20:45.522Z,10.05
2023-04-10T02:23:16.975Z,10.63
2023-04-10T02:25:44.371Z,11.95
2023-04-10T02:28:11.368Z,11.65
2023-04-10T02:30:39.246Z,9.75
2023-04-10T02:33:06.533Z,9.95
2023-04-10T02:35:34.909Z,11.45
2023-04-10T02:38:03.740Z,9.75
2023-04-10T02:40:32.647Z,9.52
2023-04-10T02:43:13.978Z,11.68
2023-04-10T02:45:41.888Z,11.55
2023-04-10T02:48:11.417Z,12.30
2023-04-10T02:50:38.524Z,9.25
2023-04-10T02:53:05.708Z,9.13
2023-04-10T02:55:32.681Z,11.20
2023-04-10T02:57:59.837Z,9.93
2023-04-10T03:00:26.941Z,11.02
2023-04-10T03:03:14.394Z,12.55
2023-04-10T03:05:51.674Z,9.52
2023-04-10T03:08:24.667Z,10.38
2023-04-10T03:10:52.046Z,9.15
2023-04-10T03:13:19.020Z,9.32
2023-04-10T03:15:46.907Z,10.40
2023-04-10T03:18:14.004Z,9.98
2023-04-10T03:20:45.137Z,9.30
2023-04-10T03:23:12.392Z,14.88
2023-04-10T03:25:39.377Z,10.13
2023-04-10T03:28:07.899Z,11.57
2023-04-10T03:30:38.179Z,9.43
2023-04-10T03:33:06.041Z,10.63
2023-04-10T03:35:33.073Z,9.88
2023-04-10T03:38:00.265Z,10.55
2023-04-10T03:40:27.273Z,11.05
2023-04-10T03:42:54.251Z,13.00
2023-04-10T03:45:21.447Z,10.05
2023-04-10T03:47:48.478Z,11.43
2023-04-10T03:50:16.493Z,10.63
2023-04-10T03:52:52.625Z,10.00
2023-04-10T03:55:22.007Z,12.30
2023-04-10T03:57:50.794Z,12.25
2023-04-10T04:00:21.258Z,11.55
2023-04-10T04:02:52.155Z,11.30
2023-04-10T04:05:35.221Z,11.25
2023-04-10T04:08:27.657Z,10.95
2023-04-10T04:11:15.850Z,11.73
2023-04-10T04:16:51.294Z,9.27
2023-04-10T04:19:30.817Z,9.80
2023-04-10T04:22:15.971Z,9.10
2023-04-10T04:25:02.136Z,9.60
2023-04-10T04:27:42.498Z,9.38
2023-04-10T04:33:10.748Z,12.15
2023-04-10T04:35:59.555Z,11.73
2023-04-10T04:38:38.843Z,10.90
2023-04-10T04:41:26.077Z,9.43
2023-04-10T04:44:15.975Z,10.63
2023-04-10T04:47:00.476Z,12.37
2023-04-10T04:49:46.028Z,13.95
2023-04-10T04:52:25.707Z,15.15
2023-04-10T04:55:19.100Z,25.27
2023-04-10T04:57:59.942Z,12.68
2023-04-10T05:00:26.942Z,13.05
2023-04-10T05:03:12.775Z,12.32
2023-04-10T05:06:02.961Z,11.68
2023-04-10T05:08:49.891Z,11.30
2023-04-10T05:11:30.202Z,10.13
2023-04-10T05:13:57.366Z,13.38
2023-04-10T05:16:33.413Z,10.23
2023-04-10T05:19:12.376Z,10.60
2023-04-10T05:22:01.998Z,10.30
2023-04-10T05:24:53.027Z,16.80
2023-04-10T05:27:36.288Z,14.52
2023-04-10T05:30:16.070Z,10.98
2023-04-10T05:33:02.866Z,12.25
2023-04-10T05:35:56.648Z,9.55
2023-04-10T05:38:44.122Z,10.40
2023-04-10T05:41:25.741Z,9.85
2023-04-10T05:44:16.188Z,11.32
2023-04-10T05:47:05.820Z,9.27
2023-04-10T05:49:38.659Z,14.98
2023-04-10T05:52:34.636Z,9.02
2023-04-10T05:55:23.143Z,9.60
2023-04-10T05:58:16.029Z,9.73
2023-04-10T06:01:18.135Z,10.05
2023-04-10T06:03:56.070Z,11.30
2023-04-10T06:06:25.860Z,10.82
2023-04-10T06:08:53.295Z,11.02
2023-04-10T06:11:21.109Z,9.50
2023-04-10T06:13:52.422Z,9.10
2023-04-10T06:16:22.316Z,10.23
2023-04-10T06:18:52.353Z,8.50
2023-04-10T06:21:19.771Z,8.65
2023-04-10T06:23:46.928Z,9.75
2023-04-10T06:26:14.047Z,10.40
2023-04-10T06:28:42.081Z,8.68
2023-04-10T06:31:09.359Z,7.88
2023-04-10T06:33:37.784Z,8.32
2023-04-10T06:36:08.058Z,8.65
2023-04-10T06:38:41.374Z,8.80
2023-04-10T06:41:09.016Z,7.13
2023-04-10T06:43:39.100Z,8.25
2023-04-10T06:46:06.975Z,6.53
2023-04-10T06:48:34.695Z,9.05
2023-04-10T06:51:01.677Z,7.63
2023-04-10T06:53:29.130Z,9.77
2023-04-10T06:55:57.046Z,13.10
2023-04-10T06:58:24.634Z,7.60
2023-04-10T07:00:52.033Z,8.60
2023-04-10T07:03:19.008Z,6.05
2023-04-10T07:05:46.178Z,6.97
2023-04-10T07:08:13.141Z,9.68
2023-04-10T07:10:40.344Z,7.13
2023-04-10T07:13:07.289Z,7.15
2023-04-10T07:15:34.448Z,6.05
2023-04-10T07:18:01.656Z,14.10
2023-04-10T07:20:28.661Z,6.90
2023-04-10T07:22:55.717Z,6.53
2023-04-10T07:25:23.125Z,7.07
2023-04-10T07:27:50.260Z,7.13
2023-04-10T07:30:25.737Z,8.13
2023-04-10T07:32:52.978Z,6.10
2023-04-10T07:35:20.402Z,7.10
2023-04-10T07:37:51.740Z,7.43
2023-04-10T07:40:18.965Z,8.60
2023-04-10T07:42:46.648Z,6.57
2023-04-10T07:45:13.720Z,7.78
2023-04-10T07:47:40.868Z,6.97
2023-04-10T07:50:08.935Z,7.85
2023-04-10T07:52:36.112Z,6.70
2023-04-10T07:55:04.460Z,6.10
2023-04-10T07:57:32.347Z,7.28
2023-04-10T07:59:59.504Z,9.85
2023-04-10T08:02:26.728Z,6.97
2023-04-10T08:04:54.056Z,6.25
2023-04-10T08:07:22.683Z,6.50
2023-04-10T08:09:49.618Z,5.70
2023-04-10T08:12:16.561Z,5.32
2023-04-10T08:14:44.914Z,9.00
2023-04-10T08:17:14.848Z,5.30
2023-04-10T08:19:43.467Z,5.60
2023-04-10T08:22:11.155Z,8.23
2023-04-10T08:24:38.097Z,9.27
2023-04-10T08:27:05.222Z,5.75
2023-04-10T08:29:32.377Z,7.43
2023-04-10T08:32:01.217Z,6.43
2023-04-10T08:34:28.645Z,6.18
2023-04-10T08:36:55.728Z,6.03
2023-04-10T08:39:23.007Z,7.82
2023-04-10T08:41:50.290Z,6.95
2023-04-10T08:44:18.253Z,4.15
2023-04-10T08:46:48.873Z,7.63
2023-04-10T08:49:54.281Z,11.00
2023-04-10T08:52:34.280Z,7.00
2023-04-10T08:55:07.620Z,8.63
2023-04-10T08:57:38.861Z,8.38
2023-04-10T09:00:22.149Z,7.40
2023-04-10T09:02:55.530Z,6.53
2023-04-10T09:05:25.274Z,7.85
2023-04-10T09:07:52.459Z,5.97
2023-04-10T09:10:19.575Z,7.68
2023-04-10T09:12:48.019Z,5.10
2023-04-10T09:15:16.176Z,6.90
2023-04-10T09:18:03.745Z,5.75
2023-04-10T09:20:32.471Z,5.78
2023-04-10T09:23:00.865Z,5.43
2023-04-10T09:25:35.536Z,8.43
2023-04-10T09:28:10.219Z,6.85
2023-04-10T09:30:42.664Z,6.60
2023-04-10T09:33:28.047Z,5.97
2023-04-10T09:38:25.890Z,4.75
2023-04-10T09:40:54.769Z,6.07
2023-04-10T09:43:24.491Z,4.85
2023-04-10T09:45:57.576Z,4.60
2023-04-10T09:48:27.266Z,4.65
2023-04-10T09:50:54.434Z,4.72
2023-04-10T09:53:21.924Z,6.97
2023-04-10T09:55:50.869Z,7.95
2023-04-10T09:58:19.045Z,4.38
2023-04-10T10:00:50.071Z,4.93
2023-04-10T10:03:21.141Z,5.47
2023-04-10T10:05:50.972Z,5.30
2023-04-10T10:08:18.589Z,4.63
2023-04-10T10:10:53.420Z,4.28
2023-04-10T10:13:31.899Z,4.40
2023-04-10T10:16:21.306Z,6.63
2023-04-10T10:20:04.049Z,6.25
2023-04-10T10:22:32.363Z,4.07
2023-04-10T10:25:02.487Z,4.85
2023-04-10T10:27:34.570Z,3.97
2023-04-10T10:30:11.967Z,4.10
2023-04-10T10:32:47.015Z,4.03
2023-04-10T10:35:14.340Z,5.45
2023-04-10T10:37:42.713Z,3.92
2023-04-10T10:40:28.691Z,4.25
2023-04-10T10:43:42.948Z,5.63
2023-04-10T10:46:18.462Z,6.82
2023-04-10T10:49:02.225Z,4.20
2023-04-10T10:51:52.021Z,4.97
2023-04-10T10:54:34.365Z,3.67
2023-04-10T10:57:03.048Z,3.70
2023-04-10T10:59:55.348Z,4.60
2023-04-10T11:02:23.640Z,3.28
2023-04-10T11:04:51.361Z,4.45
2023-04-10T11:07:19.154Z,4.53
2023-04-10T11:09:52.036Z,3.92
2023-04-10T11:12:23.295Z,4.65
2023-04-10T11:15:01.682Z,3.80
2023-04-10T11:17:52.561Z,7.97
2023-04-10T11:20:22.186Z,4.95
2023-04-10T11:23:12.316Z,3.30
2023-04-10T11:25:54.746Z,3.33
2023-04-10T11:28:40.644Z,4.03
2023-04-10T11:31:22.874Z,7.85
2023-04-10T11:34:08.187Z,3.95
2023-04-10T11:36:42.673Z,5.28
2023-04-10T11:39:19.172Z,4.40
2023-04-10T11:41:51.944Z,5.03
2023-04-10T11:44:36.738Z,17.15
2023-04-10T11:47:04.781Z,4.40
2023-04-10T11:49:34.523Z,8.30
2023-04-10T11:52:01.644Z,4.30
2023-04-10T11:54:29.841Z,3.88
2023-04-10T11:57:13.001Z,4.47
2023-04-10T11:59:39.953Z,4.53
2023-04-10T12:02:16.876Z,4.05
2023-04-10T12:04:44.768Z,3.85
2023-04-10T12:07:12.178Z,3.22
2023-04-10T12:09:39.210Z,8.02
2023-04-10T12:12:08.254Z,4.28
2023-04-10T12:14:38.282Z,3.42
2023-04-10T12:17:09.544Z,3.05
2023-04-10T12:19:38.296Z,3.60
2023-04-10T12:22:05.659Z,3.83
2023-04-10T12:24:53.725Z,3.47
2023-04-10T12:27:28.782Z,3.03
2023-04-10T12:32:27.818Z,3.53
2023-04-10T12:34:59.142Z,2.63
2023-04-10T12:37:48.230Z,3.35
2023-04-10T12:40:15.506Z,2.55
2023-04-10T12:42:43.699Z,2.75
2023-04-10T12:45:14.179Z,2.80
2023-04-10T12:47:53.820Z,2.90
2023-04-10T12:50:21.224Z,3.00
2023-04-10T12:53:09.342Z,3.00
2023-04-10T12:55:36.594Z,5.55
2023-04-10T12:58:22.893Z,2.65
2023-04-10T13:00:50.434Z,3.60
2023-04-10T13:03:27.097Z,4.20
2023-04-10T13:05:54.689Z,3.00
2023-04-10T13:08:23.066Z,3.75
2023-04-10T13:10:50.493Z,3.88
2023-04-10T13:13:18.037Z,4.28
2023-04-10T13:15:45.366Z,5.18
2023-04-10T13:18:14.834Z,2.72
2023-04-10T13:20:42.030Z,3.47
2023-04-10T13:23:09.284Z,5.20
2023-04-10T13:25:40.760Z,3.88
2023-04-10T13:28:11.166Z,3.05
2023-04-10T13:30:42.440Z,4.10
2023-04-10T13:33:10.971Z,3.80
2023-04-10T13:35:40.083Z,3.17
2023-04-10T13:38:07.406Z,3.80
2023-04-10T13:40:34.610Z,4.15
2023-04-10T13:43:01.666Z,3.25
2023-04-10T13:45:28.718Z,3.42
2023-04-10T13:47:55.864Z,2.67
2023-04-10T13:50:22.969Z,6.40
2023-04-10T13:52:51.581Z,4.70
2023-04-10T13:55:20.112Z,3.40
2023-04-10T13:57:47.027Z,3.78
2023-04-10T14:00:14.810Z,3.95
2023-04-10T14:02:42.660Z,3.05
2023-04-10T14:05:10.398Z,4.47
2023-04-10T14:07:37.597Z,3.33
2023-04-10T14:10:05.360Z,3.13
2023-04-10T14:12:32.669Z,5.03
2023-04-10T14:14:59.781Z,3.58
2023-04-10T14:17:28.020Z,38.03
2023-04-10T14:19:55.115Z,13.48
2023-04-10T14:22:22.258Z,5.53
2023-04-10T14:24:51.055Z,5.05
2023-04-10T14:27:19.480Z,5.82
2023-04-10T14:29:54.342Z,5.63
2023-04-10T14:32:22.368Z,5.15
2023-04-10T14:34:50.128Z,4.82
2023-04-10T14:37:27.753Z,9.27
2023-04-10T14:39:55.740Z,5.93
2023-04-10T14:42:23.840Z,7.40
2023-04-10T14:44:50.971Z,5.80
2023-04-10T14:47:18.463Z,3.95
2023-04-10T14:49:45.446Z,6.32
2023-04-10T14:52:12.592Z,7.18
2023-04-10T14:54:39.554Z,2.97
2023-04-10T14:57:06.593Z,2.85
2023-04-10T14:59:33.731Z,3.13
2023-04-10T15:02:00.760Z,2.97
2023-04-10T15:04:28.326Z,3.60
2023-04-10T15:06:55.469Z,3.05
2023-04-10T15:09:22.420Z,4.13
2023-04-10T15:11:49.452Z,2.85
2023-04-10T15:14:16.384Z,2.47
2023-04-10T15:16:43.551Z,2.67
2023-04-10T15:19:10.925Z,4.65
2023-04-10T15:21:37.889Z,2.90
2023-04-10T15:24:07.388Z,2.38
2023-04-10T15:26:34.994Z,2.40
2023-04-10T15:29:01.929Z,2.50
2023-04-10T15:31:29.171Z,2.70
2023-04-10T15:33:56.225Z,5.22
2023-04-10T15:36:23.295Z,3.10
2023-04-10T15:38:50.536Z,5.72
2023-04-10T15:41:18.146Z,3.35
2023-04-10T15:43:45.104Z,3.20
2023-04-10T15:46:12.330Z,3.08
2023-04-10T15:48:39.452Z,3.65
2023-04-10T15:51:07.515Z,4.78
2023-04-10T15:53:35.651Z,4.70
2023-04-10T15:56:05.733Z,4.10
2023-04-10T15:58:34.012Z,4.78
2023-04-10T16:01:01.735Z,4.43
2023-04-10T16:03:30.641Z,3.63
2023-04-10T16:05:58.449Z,5.78
2023-04-10T16:08:26.310Z,2.70
2023-04-10T16:10:54.170Z,5.00
2023-04-10T16:13:21.556Z,3.30
2023-04-10T16:15:50.455Z,4.53
2023-04-10T16:18:18.485Z,3.35
2023-04-10T16:20:46.233Z,4.57
2023-04-10T16:23:13.693Z,9.00
2023-04-10T16:25:41.412Z,6.43
2023-04-10T16:28:42.146Z,5.47
2023-04-10T16:34:02.614Z,3.88
2023-04-10T16:36:29.557Z,12.23
2023-04-10T16:38:56.743Z,7.25
2023-04-10T16:41:24.146Z,6.72
2023-04-10T16:43:51.092Z,5.93
2023-04-10T16:46:18.425Z,3.22
2023-04-10T16:48:45.648Z,3.83
2023-04-10T16:51:17.908Z,7.47
2023-04-10T16:53:45.209Z,4.15
2023-04-10T16:56:12.407Z,7.05
2023-04-10T16:58:41.855Z,4.88
2023-04-10T17:01:21.554Z,4.68
2023-04-10T17:03:49.160Z,4.47
2023-04-10T17:06:17.105Z,8.25
2023-04-10T17:08:45.096Z,6.18
2023-04-10T17:11:12.909Z,4.50
2023-04-10T17:13:43.485Z,6.18
2023-04-10T17:16:34.403Z,5.55
2023-04-10T17:19:12.351Z,4.97
2023-04-10T17:21:39.383Z,7.70
2023-04-10T17:24:06.478Z,5.47
2023-04-10T17:26:33.791Z,3.97
2023-04-10T17:29:00.833Z,8.10
2023-04-10T17:31:28.599Z,8.73
2023-04-10T17:33:55.704Z,3.72
2023-04-10T17:36:22.836Z,5.53
2023-04-10T17:38:53.686Z,6.10
2023-04-10T17:41:21.282Z,3.90
2023-04-10T17:43:49.283Z,4.25
2023-04-10T17:46:17.041Z,5.75
2023-04-10T17:48:44.643Z,8.20
2023-04-10T17:51:12.148Z,5.88
2023-04-10T17:53:47.431Z,4.80
2023-04-10T17:56:21.906Z,9.15
2023-04-10T17:59:02.331Z,7.57
2023-04-10T18:01:33.609Z,11.23
2023-04-10T18:04:04.515Z,9.77
2023-04-10T18:06:31.964Z,11.23
2023-04-10T18:08:59.240Z,7.72
2023-04-10T18:11:26.437Z,6.35
2023-04-10T18:13:53.519Z,7.10
2023-04-10T18:16:20.779Z,6.10
2023-04-10T18:18:47.802Z,6.18
2023-04-10T18:21:15.388Z,7.90
2023-04-10T18:23:44.411Z,5.15
2023-04-10T18:26:12.739Z,7.10
2023-04-10T18:28:42.136Z,7.07
2023-04-10T18:31:09.565Z,5.70
2023-04-10T18:33:36.669Z,8.32
2023-04-10T18:36:04.005Z,7.00
2023-04-10T18:38:33.660Z,9.90
2023-04-10T18:41:00.861Z,8.98
2023-04-10T18:43:28.080Z,6.55
2023-04-10T18:45:55.692Z,6.53
2023-04-10T18:48:23.037Z,7.65
2023-04-10T18:50:53.776Z,11.80
2023-04-10T18:53:22.118Z,10.98
2023-04-10T18:55:53.523Z,9.55
2023-04-10T18:58:22.114Z,12.38
2023-04-10T19:00:49.609Z,10.70
2023-04-10T19:03:16.965Z,5.75
2023-04-10T19:05:44.456Z,6.93
2023-04-10T19:08:14.677Z,7.60
2023-04-10T19:10:42.964Z,4.68
2023-04-10T19:13:12.130Z,4.65
2023-04-10T19:15:45.366Z,7.93
2023-04-10T19:18:14.126Z,5.65
2023-04-10T19:20:50.268Z,3.97
2023-04-10T19:23:19.512Z,6.28
2023-04-10T19:25:47.166Z,6.07
2023-04-10T19:28:14.234Z,4.70
2023-04-10T19:30:41.309Z,7.32
2023-04-10T19:33:08.488Z,3.65
2023-04-10T19:35:35.835Z,5.03
2023-04-10T19:38:02.973Z,5.30
2023-04-10T19:40:31.719Z,5.90
2023-04-10T19:43:00.428Z,7.38
2023-04-10T19:56:46.931Z,9.95
2023-04-10T20:03:24.420Z,5.93
2023-04-10T20:09:55.214Z,4.72
2023-04-10T20:12:36.983Z,3.28
2023-04-10T20:15:36.840Z,5.05
2023-04-10T20:28:28.710Z,4.60
2023-04-10T20:30:28.214Z,7.00
2023-04-10T20:32:55.432Z,15.85
2023-04-10T20:35:23.062Z,11.75
2023-04-10T20:37:50.079Z,8.68
2023-04-10T20:40:17.237Z,9.60
2023-04-10T20:42:44.297Z,6.65
2023-04-10T20:45:13.651Z,9.13
2023-04-10T20:47:41.093Z,7.47
2023-04-10T20:50:09.730Z,6.85
2023-04-10T20:52:58.553Z,5.43
2023-04-10T20:55:34.197Z,4.72
2023-04-10T20:58:04.992Z,5.43
2023-04-10T21:00:32.495Z,6.65
2023-04-10T21:03:00.173Z,3.42
2023-04-10T21:05:27.419Z,3.58
2023-04-10T21:08:25.530Z,5.85
2023-04-10T21:11:10.812Z,3.47
2023-04-10T21:13:44.793Z,3.30
2023-04-10T21:16:26.315Z,2.80
2023-04-10T21:19:04.709Z,5.40
2023-04-10T21:21:36.975Z,2.00
2023-04-10T21:24:04.600Z,3.35
2023-04-10T21:26:32.206Z,3.15
2023-04-10T21:28:59.266Z,3.42
2023-04-10T21:31:26.758Z,1.70
2023-04-10T21:33:54.299Z,2.53
2023-04-10T21:36:21.526Z,2.35
2023-04-10T21:38:48.473Z,3.80
2023-04-10T21:41:15.543Z,2.75
2023-04-10T21:43:43.200Z,4.28
2023-04-10T21:46:10.988Z,5.38
2023-04-10T21:48:38.084Z,3.97
2023-04-10T21:51:05.815Z,3.10
2023-04-10T21:53:33.440Z,5.78
2023-04-10T21:56:00.622Z,4.03
2023-04-10T21:58:27.714Z,4.18
2023-04-10T22:00:54.981Z,7.03
2023-04-10T22:03:22.423Z,6.57
2023-04-10T22:05:50.576Z,6.93
2023-04-10T22:08:19.908Z,3.42
2023-04-10T22:10:48.118Z,4.70
2023-04-10T22:13:27.438Z,7.20
2023-04-10T22:15:58.305Z,4.22
2023-04-10T22:18:25.376Z,4.75
2023-04-10T22:20:52.634Z,3.42
2023-04-10T22:23:19.649Z,4.32
2023-04-10T22:25:46.822Z,6.75
2023-04-10T22:28:14.374Z,4.05
2023-04-10T22:30:41.610Z,5.20
2023-04-10T22:33:11.826Z,5.60
2023-04-10T22:35:38.943Z,3.92
2023-04-10T22:38:07.812Z,3.35
2023-04-10T22:40:35.057Z,2.92
2023-04-10T22:43:02.367Z,6.03
2023-04-10T22:45:29.506Z,2.38
2023-04-10T22:47:56.772Z,7.57
2023-04-10T22:50:27.448Z,3.92
2023-04-10T22:53:05.092Z,5.90
2023-04-10T22:55:35.384Z,4.32
2023-04-10T22:58:02.666Z,8.15
2023-04-10T23:00:29.994Z,6.03
2023-04-10T23:02:57.112Z,6.07
2023-04-10T23:05:24.318Z,10.82
2023-04-10T23:07:51.419Z,8.95
2023-04-10T23:10:20.245Z,7.03
2023-04-10T23:12:47.506Z,7.25
2023-04-10T23:15:14.561Z,6.75
2023-04-10T23:17:41.622Z,10.60
2023-04-10T23:20:09.510Z,6.13
2023-04-10T23:22:36.539Z,5.35
2023-04-10T23:25:03.783Z,6.97
2023-04-10T23:27:30.937Z,6.68
2023-04-10T23:29:57.929Z,8.20
2023-04-10T23:32:25.033Z,8.38
2023-04-10T23:34:52.095Z,8.85
2023-04-10T23:37:19.122Z,5.05
2023-04-10T23:39:46.716Z,5.88
2023-04-10T23:42:13.713Z,4.43
2023-04-10T23:44:40.883Z,11.30
2023-04-10T23:47:08.057Z,7.63
2023-04-10T23:49:35.509Z,5.82
2023-04-10T23:52:02.698Z,6.30
2023-04-10T23:54:30.387Z,5.32
2023-04-10T23:56:57.366Z,4.80
2023-04-10T23:59:24.401Z,2.33
